ADDS TAF Board (Experimental) INFO Settings

IDs: Format: Expanded Condensed

KSEA - Seattle-Tacoma Intl, WA, US

Issued at 0520 UTC 04 Mar 2015
Updated at: 0830 UTC 04 Mar 2015
Time0753Z 04/09Z 04/10Z 04/11Z 04/12Z 04/13Z 04/14Z 04/15Z 04/16Z 04/17Z 04/18Z 04/19Z 04/20Z 04/21Z
Type OBS PRVL PRVL PRVL PRVL PRVL PRVL PRVL PRVL PRVL PRVL PRVL PRVL PRVL
VIS 10 >6 >6 >6 >6 >6 >6 >6 >6 >6 >6 >6 >6 >6
CIG -- -- -- -- -- -- -- -- -- -- -- -- -- --
Cover SCT SCT SCT SCT SCT SCT SCT SCT SCT SCT SCT SCT SCT SCT
FltCat VFR VFR VFR VFR VFR VFR VFR VFR VFR VFR VFR VFR VFR VFR
WX -- -- -- -- -- -- -- -- -- -- -- -- -- --
WDir 130 40 40 40 40 40 40 40 40 40 340 340 340 340
WSpd 5 4 4 4 4 4 4 4 4 4 4 4 4 4
WGst -- -- -- -- -- -- -- -- -- -- -- -- -- --
R16/34
XWnd 4 3 3 3 3 3 3 3 3 3 -1 -1 -1 -1
HWnd 3 -3 -3 -3 -3 -3 -3 -3 -3 -3 -4 -4 -4 -4

NOTE: TEMPO conditions in [brackets]. Keep in mind TEMPO conditions might be better (lower impact) than prevailing conditions.

Raw TAF
KSEA 040520Z 0406/0512 04004KT P6SM SCT250
  FM041800 34004KT P6SM SCT250


Raw METAR
KSEA 040753Z 13005KT 10SM SCT250 03/M06 A3026 RMK AO2 SLP254 T00281056 401060000
KSEA 040653Z 13005KT 10SM CLR 03/M06 A3025 RMK AO2 SLP253 T00281061
KSEA 040553Z 15004KT 10SM CLR 04/M07 A3025 RMK AO2 SLP251 T00391067 10100 20033 53006

METAR Board
Radar Display
Forecast Discussion

TAF Board Legend

Potential Impact
Threat None Slight Moderate High
Visibility (sm) ≥5.1 5.1>X≥3 3>X≥1 <1
Ceiling (100 ft) ≥30.1 30.1>X≥10 10>X≥5 <5
Wind Speed (kt) <10 10≤X<20 20≤X<30 ≥30
Wind Gust (kt) <15 15≤X<25 25≤X<35 ≥35
Weather No Wx Reported VCTS,-TS,-FZRA,SN TS,FZRA +TS,+FZRA,+SN